Time;durP1;ratioP1;P1;durP2;ratioP2;P2;SDS_P1;SDS_P2;PMS_P1;PMS_P2;Temp;Humidity;BMP_temperature;BMP_pressure;BME280_temperature;BME280_humidity;BME280_pressure;Samples;Min_cycle;Max_cycle;Signal;HPM_P1;HPM_P2
2023/01/01 00:00:11;;;;;;;10.68;5.97;;;13.40;99.90;;;;;;5032925;28;20026;-87
2023/01/01 00:02:37;;;;;;;10.77;5.18;;;;;;;;;;5045022;28;20033;-84
2023/01/01 00:05:05;;;;;;;8.77;4.93;;;13.40;99.90;;;;;;5043615;28;20076;-84
2023/01/01 00:07:30;;;;;;;8.38;4.70;;;13.30;99.90;;;;;;5037376;28;20029;-86
2023/01/01 00:12:41;;;;;;;8.85;5.90;;;;;;;;;;5051371;28;20681;-83
2023/01/01 00:15:07;;;;;;;11.02;5.68;;;13.30;99.90;;;;;;5039647;28;20033;-82
2023/01/01 00:17:33;;;;;;;8.82;5.28;;;13.20;99.90;;;;;;5032877;28;20056;-83
2023/01/01 00:19:59;;;;;;;8.27;4.15;;;13.30;99.90;;;;;;5052971;28;20075;-83
2023/01/01 00:22:25;;;;;;;9.02;4.05;;;;;;;;;;5054317;28;20048;-84
2023/01/01 00:24:51;;;;;;;7.05;4.55;;;;;;;;;;5048326;28;20025;-84
2023/01/01 00:27:17;;;;;;;8.20;4.22;;;13.30;99.90;;;;;;5035974;28;20026;-85
2023/01/01 00:29:43;;;;;;;6.97;3.80;;;;;;;;;;5020301;28;20041;-84
2023/01/01 00:32:11;;;;;;;9.15;4.05;;;;;;;;;;5031036;28;20376;-83
2023/01/01 00:34:37;;;;;;;6.35;3.70;;;;;;;;;;5029642;28;20053;-83
2023/01/01 00:37:03;;;;;;;9.82;5.53;;;;;;;;;;5035811;28;20026;-82
2023/01/01 00:39:29;;;;;;;5.32;2.95;;;;;;;;;;5019580;28;20022;-82
2023/01/01 00:41:55;;;;;;;7.43;3.33;;;;;;;;;;5036051;28;20032;-82
2023/01/01 00:44:21;;;;;;;7.88;3.70;;;;;;;;;;5035636;28;20045;-84
2023/01/01 00:46:47;;;;;;;8.23;4.32;;;;;;;;;;5036578;28;20034;-86
2023/01/01 00:49:13;;;;;;;6.80;3.95;;;13.20;99.90;;;;;;5040364;28;20026;-86
2023/01/01 00:51:39;;;;;;;8.35;4.07;;;;;;;;;;5039883;28;20029;-83
2023/01/01 00:54:05;;;;;;;10.63;5.40;;;;;;;;;;5040176;28;20032;-82
2023/01/01 00:56:31;;;;;;;8.48;3.45;;;;;;;;;;5027906;28;20063;-85
2023/01/01 00:58:57;;;;;;;6.32;3.28;;;13.10;99.90;;;;;;5039808;28;20136;-82
2023/01/01 01:01:23;;;;;;;7.93;3.55;;;;;;;;;;5039693;28;20049;-83
2023/01/01 01:03:49;;;;;;;7.78;3.50;;;13.10;99.90;;;;;;5042865;28;20017;-83
2023/01/01 01:06:16;;;;;;;7.75;4.05;;;13.30;99.90;;;;;;5049545;28;20022;-87
2023/01/01 01:08:45;;;;;;;10.82;4.25;;;13.20;99.90;;;;;;5020594;28;20120;-86
2023/01/01 01:11:14;;;;;;;6.43;3.03;;;13.20;99.90;;;;;;5037166;28;20029;-83
2023/01/01 01:13:41;;;;;;;8.18;2.88;;;13.20;99.90;;;;;;5036998;28;20033;-86
2023/01/01 01:16:08;;;;;;;8.73;3.38;;;13.20;99.90;;;;;;5045338;28;20021;-87
2023/01/01 01:18:35;;;;;;;7.05;3.20;;;13.10;99.90;;;;;;5027454;28;20030;-84
2023/01/01 01:21:00;;;;;;;6.97;3.33;;;13.10;99.90;;;;;;5017693;28;20041;-86
2023/01/01 01:23:26;;;;;;;6.72;2.95;;;;;;;;;;5019763;28;20033;-86
2023/01/01 01:25:52;;;;;;;9.63;3.70;;;;;;;;;;5030726;28;20030;-87
2023/01/01 01:28:18;;;;;;;5.82;2.83;;;13.10;99.90;;;;;;5025652;28;20046;-83
2023/01/01 01:30:44;;;;;;;5.82;2.90;;;13.10;99.90;;;;;;5028316;28;20108;-86
2023/01/01 01:33:09;;;;;;;9.48;3.17;;;13.10;99.90;;;;;;5036029;28;20112;-82
2023/01/01 01:35:35;;;;;;;9.48;3.38;;;;;;;;;;5045323;22;20045;-78
2023/01/01 01:38:01;;;;;;;7.13;3.35;;;;;;;;;;5030707;28;20034;-78
2023/01/01 01:40:27;;;;;;;7.22;3.30;;;;;;;;;;5043749;28;20040;-79
2023/01/01 01:42:53;;;;;;;8.60;4.25;;;;;;;;;;5042462;28;20034;-78
2023/01/01 01:45:20;;;;;;;8.20;2.97;;;;;;;;;;5047895;28;20029;-79
2023/01/01 01:47:46;;;;;;;7.07;3.40;;;;;;;;;;5046264;28;20053;-79
2023/01/01 01:50:24;;;;;;;6.72;2.83;;;;;;;;;;5049925;28;20034;-78
2023/01/01 01:52:58;;;;;;;6.43;2.88;;;;;;;;;;5038180;28;20454;-79
2023/01/01 01:55:26;;;;;;;5.63;2.67;;;;;;;;;;5036949;28;20028;-79
2023/01/01 01:57:52;;;;;;;4.55;2.58;;;;;;;;;;5033554;28;20505;-78
2023/01/01 02:00:18;;;;;;;6.22;3.10;;;;;;;;;;5041220;28;20116;-78
2023/01/01 02:02:47;;;;;;;5.57;3.60;;;;;;;;;;5050729;28;20017;-79
2023/01/01 02:05:13;;;;;;;7.85;3.40;;;;;;;;;;5048393;28;20031;-80
2023/01/01 02:07:39;;;;;;;7.20;3.20;;;;;;;;;;5036712;28;20103;-77
2023/01/01 02:10:05;;;;;;;5.47;3.00;;;;;;;;;;5033889;28;20567;-78
2023/01/01 02:12:31;;;;;;;5.72;2.80;;;;;;;;;;5034086;28;20030;-78
2023/01/01 02:14:57;;;;;;;6.00;2.92;;;;;;;;;;5031392;28;20045;-79
2023/01/01 02:17:23;;;;;;;7.97;3.55;;;;;;;;;;5031941;28;20517;-79
2023/01/01 02:20:00;;;;;;;7.03;3.40;;;12.90;99.90;;;;;;5038749;28;20026;-79
2023/01/01 02:22:32;;;;;;;9.07;3.10;;;;;;;;;;5038930;28;20108;-79
2023/01/01 02:25:36;;;;;;;9.77;2.90;;;12.80;99.90;;;;;;5039467;28;20037;-79
2023/01/01 02:28:02;;;;;;;7.65;3.05;;;;;;;;;;4964409;28;20057;-80
2023/01/01 02:30:30;;;;;;;5.43;2.83;;;;;;;;;;4960615;28;20034;-79
2023/01/01 02:33:05;;;;;;;8.63;3.47;;;;;;;;;;4979437;28;20038;-79
2023/01/01 02:35:42;;;;;;;4.30;2.58;;;;;;;;;;5034716;28;20098;-80
2023/01/01 02:38:14;;;;;;;6.00;2.95;;;;;;;;;;5033354;28;20099;-80
2023/01/01 02:40:43;;;;;;;7.07;3.15;;;;;;;;;;5032211;28;20025;-80
2023/01/01 02:43:09;;;;;;;5.55;3.15;;;;;;;;;;5036854;28;20507;-79
2023/01/01 02:45:35;;;;;;;7.40;3.58;;;;;;;;;;5026304;28;20029;-79
2023/01/01 02:48:06;;;;;;;5.38;3.22;;;12.70;99.90;;;;;;5029967;28;20091;-80
2023/01/01 02:50:33;;;;;;;7.30;3.30;;;12.70;99.90;;;;;;5027336;28;20022;-79
2023/01/01 02:53:20;;;;;;;5.82;3.00;;;12.70;99.90;;;;;;5035395;28;20060;-79
2023/01/01 02:56:06;;;;;;;6.18;3.00;;;12.70;99.90;;;;;;5026254;28;20017;-79
2023/01/01 03:01:57;;;;;;;5.53;3.30;;;12.70;99.90;;;;;;5036227;28;20075;-80
2023/01/01 03:04:40;;;;;;;7.05;2.85;;;12.60;99.90;;;;;;5035055;28;20497;-80
2023/01/01 03:07:40;;;;;;;5.47;3.28;;;12.70;99.90;;;;;;5033244;28;20101;-80
2023/01/01 03:10:18;;;;;;;7.20;3.05;;;12.70;99.90;;;;;;5031317;28;20036;-79
2023/01/01 03:13:02;;;;;;;9.18;3.33;;;12.70;99.90;;;;;;5037895;28;20055;-80
2023/01/01 03:15:40;;;;;;;6.35;3.33;;;12.80;99.90;;;;;;5043634;28;20144;-79
2023/01/01 03:18:25;;;;;;;11.60;3.30;;;12.80;99.90;;;;;;5030365;28;20022;-79
2023/01/01 03:20:55;;;;;;;7.35;3.00;;;12.80;99.90;;;;;;5042424;28;20026;-78
2023/01/01 03:23:26;;;;;;;10.05;3.20;;;12.80;99.90;;;;;;5039949;28;20083;-78
2023/01/01 03:25:56;;;;;;;7.18;3.10;;;12.80;99.90;;;;;;5045212;28;20430;-78
2023/01/01 03:28:27;;;;;;;5.80;2.95;;;12.90;99.90;;;;;;5044304;28;20053;-78
2023/01/01 03:30:55;;;;;;;8.35;3.00;;;12.80;99.90;;;;;;5042412;28;20029;-80
2023/01/01 03:33:34;;;;;;;8.75;2.50;;;12.90;99.90;;;;;;5039782;28;20578;-78
2023/01/01 03:36:05;;;;;;;5.40;2.80;;;12.90;99.90;;;;;;5046758;28;20159;-78
2023/01/01 03:38:54;;;;;;;4.97;2.80;;;12.90;99.90;;;;;;5027242;28;20048;-78
2023/01/01 03:41:36;;;;;;;6.57;2.88;;;12.90;99.90;;;;;;5023119;28;20534;-79
2023/01/01 03:44:09;;;;;;;6.70;3.05;;;12.90;99.90;;;;;;5033087;28;20027;-79
2023/01/01 03:46:36;;;;;;;6.88;2.72;;;12.90;99.90;;;;;;5032274;28;20080;-78
2023/01/01 03:49:05;;;;;;;7.07;2.72;;;12.90;99.90;;;;;;5032370;28;20034;-78
2023/01/01 03:51:43;;;;;;;7.13;3.22;;;12.90;99.90;;;;;;5031644;28;20037;-78
2023/01/01 03:54:19;;;;;;;6.50;2.55;;;12.90;99.90;;;;;;5026024;28;20091;-78
2023/01/01 03:56:56;;;;;;;5.05;2.67;;;12.90;99.90;;;;;;5025601;28;20025;-78
2023/01/01 03:59:30;;;;;;;5.13;2.60;;;;;;;;;;5050694;28;20101;-78
2023/01/01 04:01:57;;;;;;;8.95;2.90;;;12.80;99.90;;;;;;5040141;28;20056;-78
2023/01/01 04:04:24;;;;;;;7.00;2.72;;;12.80;99.90;;;;;;5035321;28;20037;-78
2023/01/01 04:06:52;;;;;;;5.82;2.60;;;12.70;99.90;;;;;;5033753;28;20041;-78
2023/01/01 04:09:27;;;;;;;5.18;2.58;;;12.70;99.90;;;;;;5019089;28;20128;-79
2023/01/01 04:12:06;;;;;;;7.63;2.97;;;13.80;99.90;;;;;;5036447;28;20033;-79
2023/01/01 04:14:36;;;;;;;7.22;2.92;;;12.70;99.90;;;;;;5040423;28;20029;-78
2023/01/01 04:17:03;;;;;;;6.97;3.10;;;;;;;;;;5035471;28;20030;-78
2023/01/01 04:19:29;;;;;;;7.07;2.70;;;12.70;99.90;;;;;;5052048;28;20390;-78
2023/01/01 04:21:55;;;;;;;7.70;2.60;;;12.70;99.90;;;;;;5045049;28;20010;-80
2023/01/01 04:24:22;;;;;;;6.32;2.40;;;12.70;99.90;;;;;;5050839;28;20186;-79
2023/01/01 04:26:53;;;;;;;4.35;2.28;;;12.80;99.90;;;;;;5051073;28;20019;-78
2023/01/01 04:29:19;;;;;;;8.32;3.30;;;12.70;99.90;;;;;;5042302;28;20056;-79
2023/01/01 04:31:45;;;;;;;7.75;2.45;;;12.80;99.90;;;;;;5037737;28;20049;-78
2023/01/01 04:34:11;;;;;;;7.88;2.40;;;12.80;99.90;;;;;;5037276;28;20032;-78
2023/01/01 04:36:37;;;;;;;5.13;2.00;;;;;;;;;;5036066;28;20030;-79
2023/01/01 04:39:03;;;;;;;6.05;2.63;;;13.00;99.90;;;;;;5037458;28;20025;-79
2023/01/01 04:41:29;;;;;;;5.18;2.53;;;12.90;99.90;;;;;;5033290;28;20030;-79
2023/01/01 04:43:55;;;;;;;5.65;2.45;;;12.90;99.90;;;;;;5032408;28;20063;-79
2023/01/01 04:46:22;;;;;;;6.53;2.33;;;12.90;99.90;;;;;;5036159;28;20050;-79
2023/01/01 04:48:48;;;;;;;9.80;2.97;;;12.90;99.90;;;;;;5047877;28;20128;-80
2023/01/01 04:51:15;;;;;;;7.65;2.38;;;;;;;;;;5046691;28;20021;-79
2023/01/01 04:53:41;;;;;;;6.85;2.70;;;12.90;99.90;;;;;;5039189;28;20029;-79
2023/01/01 04:56:09;;;;;;;7.07;2.38;;;12.90;99.90;;;;;;5035592;28;20033;-79
2023/01/01 04:58:37;;;;;;;6.25;2.30;;;12.90;99.90;;;;;;5050019;28;20076;-78
2023/01/01 05:01:03;;;;;;;6.60;2.42;;;;;;;;;;5035311;28;20028;-79
2023/01/01 05:03:29;;;;;;;8.02;2.60;;;12.90;99.90;;;;;;5037627;28;20443;-78
2023/01/01 05:06:06;;;;;;;4.55;2.10;;;12.90;99.90;;;;;;5032041;28;20048;-79
2023/01/01 05:08:35;;;;;;;7.20;3.10;;;12.90;99.90;;;;;;5030033;28;20430;-77
2023/01/01 05:11:03;;;;;;;5.20;2.70;;;13.00;99.90;;;;;;5033576;28;20029;-79
2023/01/01 05:13:28;;;;;;;9.93;4.05;;;12.90;99.90;;;;;;5033855;28;20379;-77
2023/01/01 05:15:55;;;;;;;7.05;3.30;;;;;;;;;;5029232;28;20112;-79
2023/01/01 05:18:21;;;;;;;5.88;2.90;;;13.00;99.90;;;;;;5027983;28;20464;-78
2023/01/01 05:20:47;;;;;;;6.32;2.75;;;;;;;;;;5032321;28;20017;-78
2023/01/01 05:23:15;;;;;;;9.07;2.78;;;13.00;99.90;;;;;;5029259;28;20036;-78
2023/01/01 05:25:42;;;;;;;5.22;2.28;;;;;;;;;;5031005;28;20021;-78
2023/01/01 05:28:08;;;;;;;6.18;2.90;;;;;;;;;;5027574;28;20112;-78
2023/01/01 05:30:34;;;;;;;8.93;2.92;;;;;;;;;;5027980;28;20063;-77
2023/01/01 05:32:59;;;;;;;6.32;2.20;;;12.90;99.90;;;;;;5029535;28;20398;-78
2023/01/01 05:35:25;;;;;;;6.85;2.67;;;;;;;;;;5029964;28;20022;-78
2023/01/01 05:37:51;;;;;;;6.55;2.60;;;12.80;99.90;;;;;;5035092;28;20116;-78
2023/01/01 05:40:17;;;;;;;7.72;2.45;;;12.80;99.90;;;;;;5030068;28;20030;-77
2023/01/01 05:42:45;;;;;;;9.32;2.90;;;14.90;99.90;;;;;;5030901;28;20105;-77
2023/01/01 05:45:11;;;;;;;8.32;2.58;;;14.50;99.90;;;;;;5029241;28;20022;-78
2023/01/01 05:47:36;;;;;;;5.60;2.35;;;12.90;99.90;;;;;;5030817;28;20600;-78
2023/01/01 05:50:02;;;;;;;11.40;2.80;;;12.60;99.90;;;;;;5024357;28;20044;-78
2023/01/01 05:52:28;;;;;;;9.77;2.55;;;12.70;99.90;;;;;;5038240;28;20040;-79
2023/01/01 05:54:53;;;;;;;7.03;2.28;;;14.70;99.90;;;;;;5040531;28;20037;-80
2023/01/01 05:57:19;;;;;;;4.30;2.22;;;12.80;99.90;;;;;;5043267;28;20025;-80
2023/01/01 05:59:45;;;;;;;6.97;2.35;;;12.70;99.90;;;;;;5043373;28;20051;-79
2023/01/01 06:02:10;;;;;;;4.57;2.20;;;14.00;99.90;;;;;;5034783;28;20088;-79
2023/01/01 06:04:36;;;;;;;6.55;2.15;;;12.80;99.90;;;;;;5039979;28;20026;-79
2023/01/01 06:07:04;;;;;;;7.40;2.25;;;12.70;99.90;;;;;;5034337;28;20030;-79
2023/01/01 06:09:29;;;;;;;5.63;2.33;;;12.80;99.90;;;;;;5033972;28;20033;-78
2023/01/01 06:11:55;;;;;;;6.82;2.38;;;12.80;99.90;;;;;;5032773;28;20029;-78
2023/01/01 06:14:21;;;;;;;4.65;2.30;;;15.00;99.90;;;;;;5047932;28;20032;-80
2023/01/01 06:16:46;;;;;;;5.15;2.13;;;12.70;99.90;;;;;;5031419;28;20502;-78
2023/01/01 06:19:12;;;;;;;5.20;2.10;;;12.80;99.90;;;;;;5039444;28;20517;-79
2023/01/01 06:21:38;;;;;;;6.25;2.30;;;14.20;99.90;;;;;;5029101;28;20104;-79
2023/01/01 06:24:04;;;;;;;7.35;2.17;;;;;;;;;;5027883;28;20127;-79
2023/01/01 06:26:32;;;;;;;4.38;2.20;;;12.80;99.90;;;;;;5036167;28;20036;-79
2023/01/01 06:28:59;;;;;;;9.40;2.60;;;12.80;99.90;;;;;;5027772;28;20554;-79
2023/01/01 06:31:25;;;;;;;8.10;2.80;;;14.40;99.90;;;;;;5035864;28;20025;-79
2023/01/01 06:33:51;;;;;;;6.15;2.15;;;12.80;99.90;;;;;;5030228;28;20449;-79
2023/01/01 06:36:19;;;;;;;4.25;2.13;;;12.70;99.90;;;;;;5030576;28;20033;-79
2023/01/01 06:38:48;;;;;;;8.13;2.25;;;12.70;99.90;;;;;;5032041;28;20113;-79
2023/01/01 06:41:16;;;;;;;6.78;2.47;;;12.70;99.90;;;;;;5032733;28;20179;-79
2023/01/01 06:43:42;;;;;;;6.55;2.25;;;12.70;99.90;;;;;;5041423;28;20043;-78
2023/01/01 06:46:17;;;;;;;5.78;2.30;;;12.80;99.90;;;;;;5047386;28;20030;-79
2023/01/01 06:48:44;;;;;;;5.38;2.60;;;12.80;99.90;;;;;;5044231;28;20029;-79
2023/01/01 06:51:13;;;;;;;5.35;2.13;;;12.80;99.90;;;;;;5049701;28;20187;-79
2023/01/01 06:53:39;;;;;;;6.72;2.10;;;12.80;99.90;;;;;;5034612;28;20025;-79
2023/01/01 06:56:06;;;;;;;7.28;2.20;;;12.80;99.90;;;;;;5015304;28;20193;-78
2023/01/01 06:58:32;;;;;;;6.18;2.20;;;12.80;99.90;;;;;;5027628;28;20022;-79
2023/01/01 07:01:14;;;;;;;11.35;3.03;;;12.80;99.90;;;;;;5034574;28;20057;-80
2023/01/01 07:03:41;;;;;;;9.45;2.75;;;12.80;99.90;;;;;;5042162;28;20033;-79
2023/01/01 07:06:08;;;;;;;5.10;2.20;;;12.80;99.90;;;;;;5015468;28;20033;-79
2023/01/01 07:08:34;;;;;;;6.20;2.08;;;12.80;99.90;;;;;;5034037;28;20029;-79
2023/01/01 07:11:01;;;;;;;8.57;2.45;;;12.80;99.90;;;;;;5029767;28;20029;-79
2023/01/01 07:13:28;;;;;;;10.95;2.60;;;12.80;99.90;;;;;;5029632;28;20042;-79
2023/01/01 07:15:54;;;;;;;9.00;2.42;;;;;;;;;;5029428;28;20387;-78
2023/01/01 07:18:21;;;;;;;7.40;2.22;;;10.70;99.90;;;;;;5048590;28;20037;-78
2023/01/01 07:21:02;;;;;;;12.02;2.65;;;12.80;99.90;;;;;;5031630;28;20041;-78
2023/01/01 07:23:30;;;;;;;6.07;2.08;;;12.80;99.90;;;;;;5023576;28;20403;-78
2023/01/01 07:25:56;;;;;;;5.45;2.28;;;13.10;99.90;;;;;;5034685;28;20044;-79
2023/01/01 07:28:23;;;;;;;6.22;2.17;;;12.80;99.90;;;;;;5031314;28;20097;-79
2023/01/01 07:30:51;;;;;;;11.32;2.50;;;12.80;99.90;;;;;;5029002;28;20509;-79
2023/01/01 07:33:18;;;;;;;8.52;2.20;;;;;;;;;;5033298;28;20037;-79
2023/01/01 07:35:45;;;;;;;6.10;2.42;;;;;;;;;;5045687;23;20049;-87
2023/01/01 07:38:11;;;;;;;8.30;2.70;;;;;;;;;;5048322;28;20017;-87
2023/01/01 07:40:37;;;;;;;10.02;2.47;;;;;;;;;;5046341;28;20028;-88
2023/01/01 07:43:03;;;;;;;6.07;2.60;;;;;;;;;;5052304;28;20089;-88
2023/01/01 07:45:29;;;;;;;9.63;2.58;;;;;;;;;;5044167;28;20024;-89
2023/01/01 07:47:56;;;;;;;8.93;2.55;;;12.70;99.90;;;;;;5067032;28;20037;-87
2023/01/01 07:50:24;;;;;;;6.47;2.28;;;12.70;99.90;;;;;;5050766;28;20037;-88
2023/01/01 07:52:50;;;;;;;9.55;2.78;;;;;;;;;;5051593;28;20029;-88
2023/01/01 07:55:17;;;;;;;6.82;2.40;;;12.70;99.90;;;;;;5054150;28;20040;-88
2023/01/01 07:57:44;;;;;;;6.43;2.33;;;;;;;;;;5055259;28;20025;-89
2023/01/01 08:00:11;;;;;;;9.80;2.75;;;12.70;99.90;;;;;;5065198;28;20041;-89
2023/01/01 08:02:44;;;;;;;6.97;2.40;;;;;;;;;;5042225;28;20014;-90
2023/01/01 08:05:10;;;;;;;5.13;2.17;;;;;;;;;;5051816;28;20018;-85
2023/01/01 08:07:37;;;;;;;7.68;2.70;;;12.70;99.90;;;;;;5066425;28;20055;-87
2023/01/01 08:10:04;;;;;;;8.07;3.13;;;12.70;99.90;;;;;;5050482;28;20057;-88
2023/01/01 08:12:30;;;;;;;11.45;2.80;;;;;;;;;;5050143;28;20009;-86
2023/01/01 08:14:56;;;;;;;11.02;2.50;;;;;;;;;;5048625;28;20076;-88
2023/01/01 08:17:22;;;;;;;7.97;3.20;;;;;;;;;;5045869;28;20010;-87
2023/01/01 08:19:49;;;;;;;7.40;2.40;;;;;;;;;;5055073;28;20021;-89
2023/01/01 08:22:15;;;;;;;7.25;2.30;;;;;;;;;;5046937;28;20006;-87
2023/01/01 08:24:41;;;;;;;7.35;2.97;;;;;;;;;;5049552;28;20305;-87
2023/01/01 08:27:10;;;;;;;8.02;2.58;;;;;;;;;;5044937;28;20014;-87
2023/01/01 08:29:39;;;;;;;7.50;2.35;;;;;;;;;;5058058;28;20026;-87
2023/01/01 08:32:08;;;;;;;10.00;2.72;;;;;;;;;;5042495;28;20033;-87
2023/01/01 08:34:37;;;;;;;7.50;2.53;;;12.80;99.90;;;;;;5049122;28;20034;-87
2023/01/01 08:37:06;;;;;;;6.57;2.50;;;;;;;;;;5048168;28;20025;-90
2023/01/01 08:39:35;;;;;;;8.10;2.35;;;;;;;;;;5043070;28;20048;-87
2023/01/01 08:42:04;;;;;;;11.15;2.80;;;;;;;;;;5046372;28;20029;-84
2023/01/01 08:44:30;;;;;;;5.35;2.20;;;;;;;;;;5045981;28;20026;-86
2023/01/01 08:46:56;;;;;;;6.45;2.30;;;;;;;;;;5048491;28;20048;-89
2023/01/01 08:49:22;;;;;;;6.93;2.20;;;;;;;;;;5051394;28;20044;-86
2023/01/01 08:51:48;;;;;;;5.65;2.33;;;;;;;;;;5066844;28;20101;-84
2023/01/01 08:54:14;;;;;;;8.07;2.55;;;;;;;;;;5048883;28;20034;-86
2023/01/01 08:56:40;;;;;;;8.00;2.45;;;;;;;;;;5047620;28;20052;-84
2023/01/01 08:59:06;;;;;;;9.50;2.90;;;;;;;;;;5045193;28;20025;-89
2023/01/01 09:01:32;;;;;;;8.20;2.63;;;;;;;;;;5033961;28;20029;-88
2023/01/01 09:03:58;;;;;;;8.50;2.40;;;;;;;;;;5047302;28;20026;-87
2023/01/01 09:06:24;;;;;;;8.07;2.50;;;;;;;;;;5050212;28;20014;-86
2023/01/01 09:08:50;;;;;;;6.55;2.28;;;;;;;;;;5047645;28;20032;-84
2023/01/01 09:11:27;;;;;;;8.27;2.40;;;13.20;99.90;;;;;;5044339;28;20034;-87
2023/01/01 09:13:53;;;;;;;10.63;2.60;;;;;;;;;;5042877;28;20037;-86
2023/01/01 09:16:20;;;;;;;8.70;2.50;;;13.20;99.90;;;;;;5044116;28;20017;-86
2023/01/01 09:18:46;;;;;;;10.07;2.78;;;;;;;;;;5044028;28;20022;-86
2023/01/01 09:21:12;;;;;;;10.13;2.70;;;;;;;;;;5046594;28;20009;-89
2023/01/01 09:23:39;;;;;;;8.68;2.55;;;;;;;;;;5039077;28;20026;-84
2023/01/01 09:26:07;;;;;;;11.50;2.60;;;13.40;99.90;;;;;;5048153;28;20022;-86
2023/01/01 09:28:33;;;;;;;10.90;2.53;;;;;;;;;;5043650;28;20057;-87
2023/01/01 09:31:00;;;;;;;9.93;2.80;;;13.50;99.90;;;;;;5043821;28;20032;-87
2023/01/01 09:33:26;;;;;;;6.55;2.22;;;;;;;;;;5039911;28;20489;-88
2023/01/01 09:35:53;;;;;;;10.38;2.50;;;;;;;;;;5061340;28;20026;-86
2023/01/01 09:38:19;;;;;;;6.82;2.28;;;;;;;;;;5046381;28;20025;-84
2023/01/01 09:41:06;;;;;;;6.78;2.03;;;13.80;99.90;;;;;;5042378;28;20045;-84
2023/01/01 09:43:37;;;;;;;5.13;2.30;;;13.80;99.90;;;;;;5037462;28;20564;-88
2023/01/01 09:46:06;;;;;;;9.20;2.38;;;13.90;99.90;;;;;;5046993;28;20112;-89
2023/01/01 09:48:33;;;;;;;9.35;2.72;;;14.00;99.90;;;;;;5042874;28;20033;-86
2023/01/01 09:51:00;;;;;;;7.75;2.30;;;;;;;;;;5037803;28;20044;-85
2023/01/01 09:53:42;;;;;;;9.50;2.33;;;;;;;;;;5035615;28;20028;-89
2023/01/01 09:56:17;;;;;;;7.63;2.28;;;14.20;99.90;;;;;;5049888;28;20089;-87
2023/01/01 09:58:44;;;;;;;6.43;2.13;;;;;;;;;;5066318;28;20184;-88
2023/01/01 10:01:35;;;;;;;9.68;3.08;;;14.30;99.90;;;;;;5048282;28;20031;-87
2023/01/01 10:04:04;;;;;;;5.78;1.98;;;;;;;;;;5049558;28;20056;-87
2023/01/01 10:06:33;;;;;;;11.38;2.53;;;14.40;99.90;;;;;;5054305;28;20068;-85
2023/01/01 10:09:15;;;;;;;9.13;2.67;;;14.40;99.90;;;;;;5047474;28;20053;-87
2023/01/01 10:12:05;;;;;;;7.10;2.20;;;14.40;99.90;;;;;;5043518;28;20026;-86
2023/01/01 10:14:35;;;;;;;7.35;2.72;;;14.40;99.90;;;;;;5041453;28;20033;-87
2023/01/01 10:17:35;;;;;;;8.77;2.57;;;14.40;99.90;;;;;;5051348;28;20041;-88
2023/01/01 10:20:09;;;;;;;7.28;2.95;;;14.40;99.90;;;;;;5052946;28;20050;-88
2023/01/01 10:22:39;;;;;;;4.70;2.20;;;14.40;99.90;;;;;;5068294;28;20034;-87
2023/01/01 10:25:08;;;;;;;11.88;2.53;;;14.40;99.90;;;;;;5045194;28;20029;-90
2023/01/01 10:27:38;;;;;;;7.60;2.78;;;14.40;99.90;;;;;;5042848;28;20080;-87
2023/01/01 10:30:14;;;;;;;8.15;2.85;;;14.40;99.90;;;;;;5046830;28;20009;-88
2023/01/01 10:32:42;;;;;;;6.65;2.33;;;14.30;99.90;;;;;;5069487;28;20013;-86
2023/01/01 10:35:16;;;;;;;8.90;2.78;;;14.20;99.90;;;;;;5045975;28;20047;-88
2023/01/01 10:37:42;;;;;;;10.18;2.92;;;;;;;;;;5046336;28;20029;-88
2023/01/01 10:40:26;;;;;;;7.93;2.38;;;14.20;99.90;;;;;;5071569;28;20029;-89
2023/01/01 10:42:55;;;;;;;10.52;2.58;;;14.20;99.90;;;;;;5068522;28;20021;-88
2023/01/01 10:45:38;;;;;;;7.22;2.50;;;14.20;99.90;;;;;;5050450;28;20096;-87
2023/01/01 10:48:25;;;;;;;10.77;2.20;;;14.20;99.90;;;;;;5049152;28;20017;-86
2023/01/01 10:50:56;;;;;;;9.05;2.30;;;14.20;99.90;;;;;;5045125;28;20045;-84
2023/01/01 10:53:25;;;;;;;11.27;2.65;;;;;;;;;;5052314;28;20044;-89
2023/01/01 10:56:14;;;;;;;8.95;2.63;;;14.20;99.90;;;;;;5043116;28;20034;-88
2023/01/01 10:58:44;;;;;;;10.52;2.95;;;14.10;99.90;;;;;;5045080;28;20009;-86
2023/01/01 11:01:23;;;;;;;10.23;2.78;;;14.10;99.90;;;;;;5044183;28;20010;-85
2023/01/01 11:04:07;;;;;;;10.57;2.63;;;14.10;99.90;;;;;;5041178;28;20045;-87
2023/01/01 11:06:46;;;;;;;10.65;2.42;;;14.10;99.90;;;;;;5047677;28;20013;-87
2023/01/01 11:09:26;;;;;;;6.80;2.00;;;14.00;99.90;;;;;;5046849;28;20093;-88
2023/01/01 11:11:57;;;;;;;13.55;2.80;;;;;;;;;;5045300;28;20067;-88
2023/01/01 11:14:27;;;;;;;6.30;1.98;;;14.00;99.90;;;;;;5043382;28;20030;-87
2023/01/01 11:16:54;;;;;;;10.45;3.22;;;14.00;99.90;;;;;;5041842;28;20036;-87
2023/01/01 11:19:26;;;;;;;11.45;2.70;;;14.00;99.90;;;;;;5045982;28;20325;-87
2023/01/01 11:21:52;;;;;;;10.88;2.80;;;;;;;;;;5044679;28;20039;-88
2023/01/01 11:24:26;;;;;;;8.65;2.35;;;14.10;99.90;;;;;;5047479;28;20017;-88
2023/01/01 11:27:10;;;;;;;10.02;2.65;;;14.10;99.90;;;;;;5045733;28;20020;-88
2023/01/01 11:29:36;;;;;;;10.85;3.13;;;;;;;;;;5053718;28;20014;-86
2023/01/01 11:32:07;;;;;;;9.82;2.45;;;14.10;99.90;;;;;;5045618;28;20026;-88
2023/01/01 11:34:39;;;;;;;7.97;2.53;;;14.00;99.90;;;;;;5048619;28;20041;-88
2023/01/01 11:37:13;;;;;;;8.43;2.67;;;14.00;99.90;;;;;;5041226;28;20018;-88
2023/01/01 11:39:44;;;;;;;7.35;2.50;;;14.00;99.90;;;;;;5042754;28;20034;-87
2023/01/01 11:42:23;;;;;;;8.90;2.40;;;14.00;99.90;;;;;;5045792;28;20293;-89
2023/01/01 11:45:02;;;;;;;11.65;2.33;;;;;;;;;;5041911;28;20041;-89
2023/01/01 11:47:35;;;;;;;9.63;2.47;;;14.00;99.90;;;;;;5043118;28;20049;-89
2023/01/01 11:50:17;;;;;;;9.90;2.50;;;14.00;99.90;;;;;;5043867;28;20037;-90
2023/01/01 11:52:49;;;;;;;11.15;5.75;;;14.00;99.90;;;;;;5040842;28;20032;-89
2023/01/01 11:55:15;;;;;;;11.60;2.50;;;;;;;;;;5046064;28;20038;-90
2023/01/01 11:57:50;;;;;;;8.80;2.65;;;14.00;99.90;;;;;;5041269;28;20623;-88
2023/01/01 12:00:16;;;;;;;9.48;2.80;;;;;;;;;;5048821;28;20013;-89
2023/01/01 12:02:57;;;;;;;8.98;2.60;;;14.00;99.90;;;;;;5047322;28;20029;-89
2023/01/01 12:05:36;;;;;;;8.07;2.35;;;14.00;99.90;;;;;;5042784;28;20013;-88
2023/01/01 12:08:08;;;;;;;8.50;2.33;;;14.10;99.90;;;;;;5045327;28;20102;-87
2023/01/01 12:11:02;;;;;;;9.68;2.72;;;14.20;99.90;;;;;;5056799;28;20054;-88
2023/01/01 12:13:32;;;;;;;12.60;3.08;;;14.10;99.90;;;;;;5042696;28;20057;-88
2023/01/01 12:16:19;;;;;;;9.52;2.55;;;14.10;99.90;;;;;;5039557;28;20025;-90
2023/01/01 12:19:12;;;;;;;10.20;2.90;;;14.10;99.90;;;;;;5034914;28;20025;-89
2023/01/01 12:21:41;;;;;;;13.38;4.30;;;14.00;99.90;;;;;;5035876;28;20033;-88
2023/01/01 12:24:11;;;;;;;10.95;3.92;;;14.00;99.90;;;;;;5040739;28;20042;-87
2023/01/01 12:26:37;;;;;;;11.45;2.85;;;;;;;;;;5035345;28;20526;-88
2023/01/01 12:29:34;;;;;;;12.38;3.38;;;14.20;99.90;;;;;;5036189;28;20057;-88
2023/01/01 12:32:08;;;;;;;11.15;3.03;;;14.10;99.90;;;;;;5037962;28;20320;-87
2023/01/01 12:35:01;;;;;;;15.60;3.13;;;14.10;99.90;;;;;;5033655;28;20436;-88
2023/01/01 12:38:02;;;;;;;11.02;2.95;;;14.10;99.90;;;;;;5032750;28;20025;-88
2023/01/01 12:40:37;;;;;;;10.43;2.63;;;14.00;99.90;;;;;;5040484;28;20022;-86
2023/01/01 12:43:27;;;;;;;10.30;2.67;;;14.00;99.90;;;;;;5051961;28;20025;-88
2023/01/01 12:46:19;;;;;;;15.38;3.05;;;14.00;99.90;;;;;;5045465;28;20419;-88
2023/01/01 12:49:00;;;;;;;9.00;2.60;;;14.00;99.90;;;;;;5038931;28;20364;-85
2023/01/01 12:51:32;;;;;;;11.75;3.47;;;;;;;;;;5053816;28;20494;-86
2023/01/01 12:54:01;;;;;;;6.72;2.42;;;;;;;;;;5038617;28;20033;-89
2023/01/01 12:56:48;;;;;;;10.00;2.78;;;14.00;99.90;;;;;;5056602;28;20021;-87
2023/01/01 12:59:21;;;;;;;7.68;3.00;;;14.00;99.90;;;;;;5034716;28;20041;-86
2023/01/01 13:01:48;;;;;;;9.85;3.30;;;14.00;99.90;;;;;;5038635;28;20021;-88
2023/01/01 13:04:20;;;;;;;9.40;2.95;;;14.00;99.90;;;;;;5053030;28;20026;-88
2023/01/01 13:06:51;;;;;;;9.38;3.20;;;14.10;99.90;;;;;;5031449;28;20025;-87
2023/01/01 13:09:17;;;;;;;7.85;3.17;;;;;;;;;;5034190;28;20083;-87
2023/01/01 13:11:47;;;;;;;14.50;3.10;;;14.10;99.90;;;;;;5035221;28;20479;-88
2023/01/01 13:14:13;;;;;;;11.30;3.15;;;14.20;99.90;;;;;;5052902;28;20041;-89
2023/01/01 13:16:41;;;;;;;11.75;3.38;;;14.30;99.90;;;;;;5029476;28;20056;-89
2023/01/01 13:19:33;;;;;;;13.30;2.90;;;14.30;99.90;;;;;;5032185;28;20029;-88
2023/01/01 13:22:20;;;;;;;11.32;4.68;;;14.30;99.90;;;;;;5031446;28;20435;-90
2023/01/01 13:25:04;;;;;;;11.90;4.63;;;14.40;99.90;;;;;;5032372;28;20471;-87
2023/01/01 13:27:59;;;;;;;13.75;5.60;;;14.30;99.90;;;;;;5032332;28;20030;-91
2023/01/01 13:33:31;;;;;;;8.77;3.42;;;14.40;99.90;;;;;;5027852;28;20553;-88
2023/01/01 13:36:10;;;;;;;8.32;3.42;;;14.30;99.90;;;;;;5048025;22;20169;-81
2023/01/01 13:38:59;;;;;;;9.07;3.33;;;14.40;99.90;;;;;;5030697;28;20021;-79
2023/01/01 13:41:29;;;;;;;9.57;2.70;;;14.40;99.90;;;;;;5033723;28;20375;-79
2023/01/01 13:44:04;;;;;;;8.98;3.78;;;14.40;99.90;;;;;;5032137;28;20037;-79
2023/01/01 13:46:53;;;;;;;9.43;2.85;;;14.40;99.90;;;;;;5030519;28;20116;-78
2023/01/01 13:49:39;;;;;;;8.10;2.88;;;14.40;99.90;;;;;;5021398;28;20260;-79